Time;durP1;ratioP1;P1;durP2;ratioP2;P2;SDS_P1;SDS_P2;PMS_P1;PMS_P2;Temp;Humidity;BMP_temperature;BMP_pressure;BME280_temperature;BME280_humidity;BME280_pressure;Samples;Min_cycle;Max_cycle;Signal;HPM_P1;HPM_P2
2023/01/21 00:00:23;;;;;;;37.55;16.08;;;-1.10;99.90;;;;;;5070983;28;20392;-51
2023/01/21 00:02:49;;;;;;;39.88;14.85;;;-0.70;99.90;;;;;;5076842;28;20032;-51
2023/01/21 00:05:14;;;;;;;40.30;14.70;;;-1.20;99.90;;;;;;5076693;28;20510;-51
2023/01/21 00:07:40;;;;;;;41.58;16.05;;;-1.20;99.90;;;;;;5070975;28;20036;-53
2023/01/21 00:10:06;;;;;;;38.50;15.60;;;-1.20;99.90;;;;;;5069875;28;21447;-50
2023/01/21 00:12:32;;;;;;;44.40;16.08;;;-1.30;99.90;;;;;;5069401;28;20044;-53
2023/01/21 00:14:57;;;;;;;39.72;15.73;;;-1.10;99.90;;;;;;5070913;28;20036;-53
2023/01/21 00:17:23;;;;;;;44.80;16.80;;;-1.30;99.90;;;;;;5082137;28;20107;-52
2023/01/21 00:19:49;;;;;;;39.40;15.85;;;-1.20;99.90;;;;;;5084243;28;20032;-49
2023/01/21 00:22:14;;;;;;;39.03;16.33;;;-1.10;99.90;;;;;;5070463;28;20081;-50
2023/01/21 00:24:40;;;;;;;40.25;16.35;;;-1.40;99.90;;;;;;5075238;28;20040;-49
2023/01/21 00:27:06;;;;;;;45.72;16.77;;;-1.30;99.90;;;;;;5077360;28;20075;-51
2023/01/21 00:29:31;;;;;;;48.13;17.35;;;-1.30;99.90;;;;;;5069923;28;20502;-51
2023/01/21 00:31:57;;;;;;;43.17;15.50;;;-1.40;99.90;;;;;;5069443;28;20040;-48
2023/01/21 00:34:22;;;;;;;43.10;16.20;;;-1.40;99.90;;;;;;5070073;28;20036;-48
2023/01/21 00:36:48;;;;;;;40.33;14.95;;;-1.20;99.90;;;;;;5076838;28;20128;-50
2023/01/21 00:39:14;;;;;;;47.53;16.73;;;-1.10;99.90;;;;;;5072813;28;20037;-49
2023/01/21 00:41:39;;;;;;;42.17;15.90;;;-1.30;99.90;;;;;;5077691;28;20404;-52
2023/01/21 00:44:05;;;;;;;50.53;16.33;;;-1.10;99.90;;;;;;5070249;28;20033;-48
2023/01/21 00:46:31;;;;;;;43.45;16.02;;;-1.30;99.90;;;;;;5071831;28;20410;-51
2023/01/21 00:48:59;;;;;;;42.92;16.60;;;-1.30;99.90;;;;;;5070328;28;20033;-49
2023/01/21 00:51:25;;;;;;;48.35;16.92;;;-1.10;99.90;;;;;;5072338;28;20048;-51
2023/01/21 00:53:50;;;;;;;42.80;17.88;;;-0.90;99.90;;;;;;5070597;28;20434;-48
2023/01/21 00:56:16;;;;;;;48.03;17.42;;;-1.20;99.90;;;;;;5077699;28;20118;-50
2023/01/21 00:58:42;;;;;;;51.55;18.50;;;-1.10;99.90;;;;;;5069897;28;20086;-46
2023/01/21 01:01:15;;;;;;;47.35;17.45;;;-1.30;99.90;;;;;;5076835;28;20043;-50
2023/01/21 01:03:42;;;;;;;45.13;16.33;;;-1.10;99.90;;;;;;5080510;28;20480;-50
2023/01/21 01:06:10;;;;;;;41.10;15.43;;;-1.40;99.90;;;;;;5068660;28;20036;-52
2023/01/21 01:08:36;;;;;;;51.50;17.13;;;-1.10;99.90;;;;;;5071005;28;20438;-48
2023/01/21 01:11:03;;;;;;;46.20;16.75;;;-1.10;99.90;;;;;;5069773;28;20075;-49
2023/01/21 01:13:29;;;;;;;46.05;17.08;;;-1.10;99.90;;;;;;5070220;28;20029;-49
2023/01/21 01:15:57;;;;;;;45.03;17.15;;;-1.30;99.90;;;;;;5068428;28;20507;-51
2023/01/21 01:18:24;;;;;;;47.75;17.00;;;-1.30;99.90;;;;;;5069994;28;20616;-50
2023/01/21 01:20:51;;;;;;;46.45;17.33;;;-1.20;99.90;;;;;;5075267;28;20411;-48
2023/01/21 01:23:16;;;;;;;48.17;17.35;;;-1.10;99.90;;;;;;5070014;28;20043;-47
2023/01/21 01:25:42;;;;;;;51.95;19.38;;;-1.20;99.90;;;;;;5069820;28;20040;-48
2023/01/21 01:28:08;;;;;;;50.40;18.17;;;-1.00;99.90;;;;;;5069676;28;20072;-50
2023/01/21 01:30:34;;;;;;;53.65;19.65;;;-1.00;99.90;;;;;;5069984;28;20052;-51
2023/01/21 01:33:00;;;;;;;47.63;17.60;;;-1.00;99.90;;;;;;5069998;28;20063;-51
2023/01/21 01:35:26;;;;;;;53.28;18.88;;;-1.00;99.90;;;;;;5076608;28;20173;-51
2023/01/21 01:37:52;;;;;;;50.33;17.70;;;-0.90;99.90;;;;;;5073736;28;20036;-50
2023/01/21 01:40:18;;;;;;;51.85;19.27;;;-1.10;99.90;;;;;;5074214;28;20047;-51
2023/01/21 01:42:43;;;;;;;52.05;18.20;;;-1.10;99.90;;;;;;5069855;28;20119;-51
2023/01/21 01:45:20;;;;;;;55.17;19.35;;;-1.20;99.90;;;;;;5070852;28;20426;-51
2023/01/21 01:47:56;;;;;;;48.97;18.98;;;-1.10;99.90;;;;;;5069522;28;20058;-53
2023/01/21 01:50:26;;;;;;;51.03;18.02;;;-0.90;99.90;;;;;;5069317;28;20052;-50
2023/01/21 01:52:52;;;;;;;47.22;17.33;;;-1.10;99.90;;;;;;5069372;28;20052;-48
2023/01/21 01:55:18;;;;;;;58.28;19.05;;;-1.00;99.90;;;;;;5081186;28;20364;-50
2023/01/21 01:57:49;;;;;;;50.13;18.65;;;-1.10;99.90;;;;;;5073765;28;20032;-47
2023/01/21 02:00:15;;;;;;;56.95;19.83;;;-0.90;99.90;;;;;;5068915;28;20124;-49
2023/01/21 02:03:43;;;;;;;56.85;19.00;;;-1.00;99.90;;;;;;5077778;28;20124;-47
2023/01/21 02:05:29;;;;;;;58.20;18.60;;;-1.20;99.90;;;;;;5069667;28;20106;-50
2023/01/21 02:07:55;;;;;;;58.03;19.42;;;-1.20;99.90;;;;;;5072798;28;20053;-51
2023/01/21 02:10:20;;;;;;;54.22;19.92;;;-1.10;99.90;;;;;;5069144;28;20064;-46
2023/01/21 02:12:46;;;;;;;55.15;19.60;;;-1.20;99.90;;;;;;5069354;28;20137;-49
2023/01/21 02:15:12;;;;;;;50.58;19.65;;;-1.20;99.90;;;;;;5086097;28;20032;-49
2023/01/21 02:17:54;;;;;;;58.80;20.67;;;-0.90;99.90;;;;;;5079793;28;20115;-47
2023/01/21 02:20:37;;;;;;;51.88;19.35;;;-1.20;99.90;;;;;;5073277;28;20044;-50
2023/01/21 02:23:34;;;;;;;57.25;20.60;;;-1.10;99.90;;;;;;5072987;28;20048;-48
2023/01/21 02:26:41;;;;;;;53.70;18.80;;;-0.80;99.90;;;;;;5073225;28;20361;-48
2023/01/21 02:29:30;;;;;;;59.70;19.98;;;-1.10;99.90;;;;;;5069302;28;20040;-49
2023/01/21 02:32:05;;;;;;;50.47;19.02;;;-1.10;99.90;;;;;;5073058;28;20045;-51
2023/01/21 02:34:45;;;;;;;56.05;19.15;;;-1.10;99.90;;;;;;5072931;28;20043;-50
2023/01/21 02:37:35;;;;;;;52.05;17.63;;;-0.80;99.90;;;;;;5072767;28;20122;-49
2023/01/21 02:40:19;;;;;;;55.42;19.02;;;-0.70;99.90;;;;;;5078256;28;20094;-49
2023/01/21 02:43:04;;;;;;;54.55;19.50;;;-0.70;99.90;;;;;;5074479;28;20066;-50
2023/01/21 02:45:48;;;;;;;59.25;19.42;;;-1.00;99.90;;;;;;5074910;28;20086;-51
2023/01/21 02:48:21;;;;;;;54.22;18.95;;;-0.70;99.90;;;;;;5071550;28;20494;-49
2023/01/21 02:50:53;;;;;;;55.20;18.27;;;-1.00;99.90;;;;;;5071457;28;20078;-49
2023/01/21 02:53:29;;;;;;;58.00;19.35;;;-1.00;99.90;;;;;;5083665;28;20479;-50
2023/01/21 02:56:00;;;;;;;55.55;18.20;;;-1.00;99.90;;;;;;5079521;28;20123;-52
2023/01/21 02:58:34;;;;;;;55.65;19.42;;;-0.60;99.90;;;;;;5074913;28;20075;-50
2023/01/21 03:01:28;;;;;;;52.53;18.55;;;-0.90;99.90;;;;;;5072348;28;20074;-48
2023/01/21 03:04:24;;;;;;;59.58;19.10;;;-0.90;99.90;;;;;;5075927;28;20044;-52
2023/01/21 03:07:17;;;;;;;65.65;18.35;;;-0.60;99.90;;;;;;5070924;28;20040;-49
2023/01/21 03:09:42;;;;;;;55.15;18.60;;;-0.80;99.90;;;;;;5072334;28;20055;-50
2023/01/21 03:12:27;;;;;;;57.97;19.27;;;-0.70;99.90;;;;;;5091776;28;20051;-51
2023/01/21 03:18:12;;;;;;;62.00;20.10;;;-0.90;99.90;;;;;;5070244;28;20037;-52
2023/01/21 03:20:46;;;;;;;58.78;19.23;;;-0.90;99.90;;;;;;5071868;28;20037;-49
2023/01/21 03:23:34;;;;;;;60.55;18.02;;;-0.50;99.90;;;;;;5075072;28;20098;-53
2023/01/21 03:26:01;;;;;;;56.50;17.80;;;-0.60;99.90;;;;;;5071566;28;20086;-48
2023/01/21 03:28:31;;;;;;;57.55;17.90;;;-0.90;99.90;;;;;;5076348;28;20043;-51
2023/01/21 03:31:12;;;;;;;61.45;20.48;;;-2.10;99.90;;;;;;5071801;28;20032;-51
2023/01/21 03:33:42;;;;;;;62.17;19.88;;;-0.80;99.90;;;;;;5073708;28;20396;-49
2023/01/21 03:36:30;;;;;;;61.53;19.13;;;-0.70;99.90;;;;;;5071948;28;20387;-48
2023/01/21 03:38:58;;;;;;;59.35;19.23;;;-0.60;99.90;;;;;;5082246;28;20047;-53
2023/01/21 03:41:30;;;;;;;56.17;19.02;;;-0.10;99.90;;;;;;5072506;28;20086;-50
2023/01/21 03:43:57;;;;;;;64.40;20.63;;;-0.50;99.90;;;;;;5076271;28;20044;-52
2023/01/21 03:46:22;;;;;;;61.28;21.02;;;-0.80;99.90;;;;;;5071789;28;20032;-53
2023/01/21 03:48:55;;;;;;;59.88;19.55;;;-0.30;99.90;;;;;;5071690;28;20074;-48
2023/01/21 03:51:26;;;;;;;71.65;20.85;;;-0.30;99.90;;;;;;5071615;28;20081;-51
2023/01/21 03:53:56;;;;;;;64.72;19.50;;;-0.50;99.90;;;;;;5070967;28;20056;-51
2023/01/21 03:56:24;;;;;;;61.28;19.38;;;-0.70;99.90;;;;;;5085955;28;20036;-50
2023/01/21 03:58:49;;;;;;;68.65;20.77;;;-0.30;99.90;;;;;;5073591;28;20036;-48
2023/01/21 04:01:15;;;;;;;62.17;21.50;;;-0.70;99.90;;;;;;5071202;28;20051;-51
2023/01/21 04:03:42;;;;;;;64.88;20.38;;;-0.70;99.90;;;;;;5070614;28;20036;-50
2023/01/21 04:06:16;;;;;;;71.50;20.63;;;-0.60;99.90;;;;;;5071118;28;20040;-47
2023/01/21 04:08:42;;;;;;;72.15;20.23;;;-0.30;99.90;;;;;;5070636;28;20040;-49
2023/01/21 04:11:08;;;;;;;64.88;21.58;;;-0.30;99.90;;;;;;5070801;28;20089;-51
2023/01/21 04:13:34;;;;;;;70.82;21.10;;;-0.70;99.90;;;;;;5070566;28;20052;-48
2023/01/21 04:15:59;;;;;;;78.05;20.92;;;-0.30;99.90;;;;;;5071213;28;20036;-50
2023/01/21 04:18:25;;;;;;;65.03;20.15;;;-0.30;99.90;;;;;;5070907;28;20395;-48
2023/01/21 04:20:51;;;;;;;57.38;18.52;;;-0.80;99.90;;;;;;5070862;28;20040;-51
2023/01/21 04:23:16;;;;;;;69.78;21.25;;;-0.60;99.90;;;;;;5071069;28;20032;-48
2023/01/21 04:25:42;;;;;;;66.30;20.45;;;-0.60;99.90;;;;;;5077263;28;20040;-52
2023/01/21 04:28:08;;;;;;;62.35;20.55;;;-0.70;99.90;;;;;;5075350;28;20040;-50
2023/01/21 04:30:33;;;;;;;61.97;20.73;;;-0.80;99.90;;;;;;5070504;28;20362;-49
2023/01/21 04:32:59;;;;;;;72.20;20.35;;;-0.70;99.90;;;;;;5070638;28;20048;-51
2023/01/21 04:35:26;;;;;;;66.88;20.58;;;-0.90;99.90;;;;;;5070731;28;20063;-50
2023/01/21 04:37:51;;;;;;;71.47;20.50;;;-0.40;99.90;;;;;;5069647;28;20036;-48
2023/01/21 04:40:17;;;;;;;68.90;22.42;;;-0.40;99.90;;;;;;5070390;28;20043;-50
2023/01/21 04:42:43;;;;;;;70.07;21.33;;;-0.80;99.90;;;;;;5079728;28;20119;-48
2023/01/21 04:45:09;;;;;;;70.50;22.65;;;-0.80;99.90;;;;;;5070758;28;20048;-47
2023/01/21 04:47:35;;;;;;;69.63;21.20;;;-0.30;99.90;;;;;;5070771;28;20403;-52
2023/01/21 04:50:03;;;;;;;67.82;22.08;;;-0.40;99.90;;;;;;5069219;28;20127;-50
2023/01/21 04:52:29;;;;;;;60.40;22.40;;;-0.80;99.90;;;;;;5081680;28;20048;-51
2023/01/21 04:54:55;;;;;;;80.40;23.00;;;-0.80;99.90;;;;;;5070555;28;20102;-52
2023/01/21 04:57:20;;;;;;;79.10;23.50;;;-0.40;99.90;;;;;;5082882;28;20042;-50
2023/01/21 04:59:46;;;;;;;77.25;22.48;;;-0.70;99.90;;;;;;5084826;28;20083;-50
2023/01/21 05:02:12;;;;;;;75.45;22.40;;;-0.90;99.90;;;;;;5069241;28;20085;-48
2023/01/21 05:04:37;;;;;;;70.30;23.48;;;-1.00;99.90;;;;;;5070076;28;20040;-49
2023/01/21 05:07:03;;;;;;;65.47;22.58;;;-0.80;99.90;;;;;;5070380;28;20131;-50
2023/01/21 05:09:29;;;;;;;66.25;21.05;;;-0.80;99.90;;;;;;5072095;28;20101;-47
2023/01/21 05:11:55;;;;;;;69.80;22.15;;;-0.50;99.90;;;;;;5074366;28;20044;-50
2023/01/21 05:14:20;;;;;;;72.22;21.85;;;-0.50;99.90;;;;;;5070106;28;20059;-51
2023/01/21 05:16:46;;;;;;;80.35;22.90;;;-1.10;99.90;;;;;;5070083;28;20044;-51
2023/01/21 05:19:11;;;;;;;71.88;21.35;;;-0.60;99.90;;;;;;5078209;28;20032;-51
2023/01/21 05:21:37;;;;;;;74.45;22.40;;;-1.00;99.90;;;;;;5069441;28;20514;-49
2023/01/21 05:24:03;;;;;;;69.57;22.45;;;-1.10;99.90;;;;;;5069803;28;20040;-47
2023/01/21 05:26:29;;;;;;;74.85;22.60;;;-0.70;99.90;;;;;;5080545;28;20036;-51
2023/01/21 05:28:54;;;;;;;68.63;20.92;;;-0.70;99.90;;;;;;5080790;28;20124;-49
2023/01/21 05:31:20;;;;;;;75.75;21.42;;;-0.70;99.90;;;;;;5069940;28;20056;-49
2023/01/21 05:33:46;;;;;;;64.43;20.35;;;-0.90;99.90;;;;;;5069520;28;20403;-52
2023/01/21 05:36:12;;;;;;;68.20;22.10;;;-0.90;99.90;;;;;;5081658;28;20048;-49
2023/01/21 05:38:38;;;;;;;63.80;19.83;;;-1.20;99.90;;;;;;5069903;28;20388;-49
2023/01/21 05:41:04;;;;;;;64.40;18.70;;;-1.00;99.90;;;;;;5069430;28;20476;-48
2023/01/21 05:43:30;;;;;;;69.68;20.33;;;-0.80;99.90;;;;;;5069263;28;20032;-49
2023/01/21 05:45:56;;;;;;;62.50;19.67;;;-1.20;99.90;;;;;;5090592;28;20048;-50
2023/01/21 05:48:22;;;;;;;65.35;20.38;;;-0.80;99.90;;;;;;5083106;28;20090;-50
2023/01/21 05:50:48;;;;;;;71.03;21.48;;;-0.90;99.90;;;;;;5072042;28;20040;-50
2023/01/21 05:53:15;;;;;;;62.92;18.52;;;-0.90;99.90;;;;;;5077495;28;20044;-49
2023/01/21 05:55:41;;;;;;;60.13;20.08;;;-0.90;99.90;;;;;;5082090;28;20051;-51
2023/01/21 05:58:06;;;;;;;65.15;20.17;;;-1.40;99.90;;;;;;5073600;28;20033;-52
2023/01/21 06:00:32;;;;;;;67.85;21.33;;;-1.30;99.90;;;;;;5078568;28;20097;-49
2023/01/21 06:03:00;;;;;;;69.93;20.88;;;-0.90;99.90;;;;;;5073277;28;20037;-49
2023/01/21 06:05:26;;;;;;;71.38;22.15;;;-0.80;99.90;;;;;;5075679;28;20047;-53
2023/01/21 06:07:52;;;;;;;69.80;21.77;;;-0.70;99.90;;;;;;5078728;28;20048;-48
2023/01/21 06:10:19;;;;;;;70.68;21.05;;;-0.70;99.90;;;;;;5080967;28;20105;-52
2023/01/21 06:12:45;;;;;;;70.22;19.85;;;-0.90;99.90;;;;;;5073305;28;20133;-50
2023/01/21 06:15:12;;;;;;;64.75;20.17;;;-0.70;99.90;;;;;;5073137;28;20037;-49
2023/01/21 06:17:39;;;;;;;69.72;20.10;;;-1.00;99.90;;;;;;5076319;28;20032;-51
2023/01/21 06:20:06;;;;;;;70.68;21.13;;;-0.90;99.90;;;;;;5080181;28;20403;-49
2023/01/21 06:22:32;;;;;;;63.28;18.88;;;-0.70;99.90;;;;;;5075203;28;20040;-48
2023/01/21 06:24:58;;;;;;;68.90;18.73;;;-0.40;99.90;;;;;;5075236;28;20050;-51
2023/01/21 06:27:24;;;;;;;76.40;19.73;;;-0.90;99.90;;;;;;5073125;28;20094;-48
2023/01/21 06:29:49;;;;;;;65.35;17.85;;;-0.90;99.90;;;;;;5073000;28;20166;-50
2023/01/21 06:32:15;;;;;;;66.65;19.08;;;-0.90;99.90;;;;;;5077677;28;20484;-51
2023/01/21 06:34:40;;;;;;;64.70;16.92;;;-0.50;99.90;;;;;;5079444;28;20119;-48
2023/01/21 06:37:06;;;;;;;65.38;17.50;;;-0.30;99.90;;;;;;5073024;28;20078;-47
2023/01/21 06:39:32;;;;;;;65.10;18.27;;;-0.90;99.90;;;;;;5073421;28;20040;-49
2023/01/21 06:41:58;;;;;;;72.82;18.75;;;-0.80;99.90;;;;;;5073377;28;20115;-52
2023/01/21 06:44:23;;;;;;;61.83;17.40;;;-0.80;99.90;;;;;;5072929;28;20403;-50
2023/01/21 06:46:49;;;;;;;61.17;15.70;;;-0.30;99.90;;;;;;5079280;28;20033;-49
2023/01/21 06:49:15;;;;;;;52.42;14.93;;;-0.60;99.90;;;;;;5076711;28;20119;-47
2023/01/21 06:51:41;;;;;;;57.63;15.60;;;-0.80;99.90;;;;;;5072670;28;20033;-49
2023/01/21 06:54:08;;;;;;;60.38;15.82;;;-0.50;99.90;;;;;;5073015;28;20048;-51
2023/01/21 06:56:35;;;;;;;62.58;16.48;;;-0.30;99.90;;;;;;5080782;28;20048;-53
2023/01/21 06:59:02;;;;;;;61.38;15.80;;;-0.20;99.90;;;;;;5091324;28;20047;-50
2023/01/21 07:01:28;;;;;;;60.50;17.70;;;-0.60;99.90;;;;;;5073786;28;20032;-53
2023/01/21 07:03:54;;;;;;;66.28;17.02;;;-0.20;99.90;;;;;;5079097;28;20036;-52
2023/01/21 07:06:21;;;;;;;62.03;17.45;;;-0.80;99.90;;;;;;5071006;28;20480;-50
2023/01/21 07:08:47;;;;;;;60.40;15.50;;;-0.50;99.90;;;;;;5072985;28;20146;-52
2023/01/21 07:11:13;;;;;;;61.10;17.27;;;0.00;99.90;;;;;;5072608;28;20181;-53
2023/01/21 07:13:39;;;;;;;67.32;16.58;;;-0.50;99.90;;;;;;5071892;28;20119;-50
2023/01/21 07:16:05;;;;;;;65.18;17.25;;;-0.30;99.90;;;;;;5071746;28;20032;-50
2023/01/21 07:18:31;;;;;;;67.40;18.35;;;-0.20;99.90;;;;;;5071953;28;20070;-52
2023/01/21 07:20:56;;;;;;;69.55;18.00;;;-0.30;99.90;;;;;;5072074;28;20068;-48
2023/01/21 07:23:23;;;;;;;61.20;17.48;;;-0.70;99.90;;;;;;5071951;28;20055;-51
2023/01/21 07:25:48;;;;;;;58.20;16.13;;;0.00;99.90;;;;;;5082244;28;20510;-48
2023/01/21 07:28:14;;;;;;;62.00;17.52;;;-0.10;99.90;;;;;;5074420;28;20133;-49
2023/01/21 07:30:40;;;;;;;66.10;17.13;;;-0.10;99.90;;;;;;5080913;28;20480;-48
2023/01/21 07:33:07;;;;;;;64.78;18.45;;;-0.70;99.90;;;;;;5079243;28;20037;-50
2023/01/21 07:35:32;;;;;;;60.83;17.77;;;-0.60;99.90;;;;;;5070350;28;20388;-52
2023/01/21 07:37:58;;;;;;;63.15;17.58;;;-0.10;99.90;;;;;;5071818;28;20028;-48
2023/01/21 07:40:24;;;;;;;59.80;17.23;;;-0.40;99.90;;;;;;5080194;28;20032;-50
2023/01/21 07:42:51;;;;;;;66.30;17.63;;;-0.30;99.90;;;;;;5071423;28;20472;-51
2023/01/21 07:45:18;;;;;;;58.33;17.38;;;0.00;99.90;;;;;;5073894;28;20037;-50
2023/01/21 07:47:43;;;;;;;70.40;18.98;;;-0.40;99.90;;;;;;5080113;28;20079;-51
2023/01/21 07:50:10;;;;;;;61.50;18.55;;;-0.60;99.90;;;;;;5072091;28;20080;-48
2023/01/21 07:52:35;;;;;;;68.32;18.63;;;-0.30;99.90;;;;;;5071533;28;20048;-48
2023/01/21 07:55:01;;;;;;;61.75;18.35;;;-0.30;99.90;;;;;;5071886;28;20131;-49
2023/01/21 07:57:27;;;;;;;70.60;17.88;;;-0.10;99.90;;;;;;5075221;28;20058;-49
2023/01/21 07:59:53;;;;;;;65.43;18.30;;;-0.50;99.90;;;;;;5074251;28;20357;-48
2023/01/21 08:02:19;;;;;;;75.40;18.88;;;-0.40;99.90;;;;;;5071370;28;20043;-47
2023/01/21 08:04:44;;;;;;;70.85;18.23;;;-0.50;99.90;;;;;;5078081;28;20484;-53
2023/01/21 08:07:10;;;;;;;72.82;20.13;;;-0.40;99.90;;;;;;5078979;28;20120;-51
2023/01/21 08:09:36;;;;;;;70.30;19.15;;;0.00;99.90;;;;;;5071638;28;20079;-48
2023/01/21 08:12:03;;;;;;;70.57;18.52;;;-0.30;99.90;;;;;;5071806;28;20484;-47
2023/01/21 08:14:29;;;;;;;66.90;18.20;;;-0.50;99.90;;;;;;5075057;28;20039;-52
2023/01/21 08:16:55;;;;;;;63.78;17.88;;;-0.50;99.90;;;;;;5071016;28;20028;-52
2023/01/21 08:19:21;;;;;;;64.68;17.08;;;0.10;99.90;;;;;;5070483;28;20039;-50
2023/01/21 08:21:46;;;;;;;56.58;16.73;;;-0.50;99.90;;;;;;5073823;28;20083;-48
2023/01/21 08:24:12;;;;;;;66.43;19.50;;;-0.20;99.90;;;;;;5080266;28;20387;-47
2023/01/21 08:26:38;;;;;;;60.35;17.27;;;0.10;99.90;;;;;;5070747;28;20076;-49
2023/01/21 08:29:04;;;;;;;66.75;18.52;;;-0.30;99.90;;;;;;5070395;28;20566;-49
2023/01/21 08:31:29;;;;;;;61.30;17.55;;;-0.40;99.90;;;;;;5072345;28;20036;-49
2023/01/21 08:33:56;;;;;;;70.78;19.65;;;-0.30;99.90;;;;;;5071333;28;20067;-49
2023/01/21 08:36:22;;;;;;;66.47;18.13;;;0.00;99.90;;;;;;5084203;28;20488;-50
2023/01/21 08:38:52;;;;;;;71.63;19.77;;;-0.10;99.90;;;;;;5070767;28;20043;-51
2023/01/21 08:41:18;;;;;;;75.15;18.90;;;-0.20;99.90;;;;;;5071957;28;20082;-48
2023/01/21 08:43:43;;;;;;;75.15;19.90;;;-0.20;99.90;;;;;;5081810;28;20036;-52
2023/01/21 08:46:09;;;;;;;71.82;19.30;;;-0.20;99.90;;;;;;5070458;28;20464;-48
2023/01/21 08:48:36;;;;;;;77.72;19.60;;;-0.20;99.90;;;;;;5073296;28;20527;-50
2023/01/21 08:51:03;;;;;;;77.32;19.35;;;-0.50;99.90;;;;;;5066365;28;20041;-51
2023/01/21 08:53:28;;;;;;;68.82;18.17;;;0.10;99.90;;;;;;5068400;28;20060;-49
2023/01/21 08:56:02;;;;;;;75.55;19.20;;;0.00;99.90;;;;;;5070267;28;20422;-51
2023/01/21 08:58:28;;;;;;;67.80;18.37;;;-0.10;99.90;;;;;;5069794;28;20372;-49
2023/01/21 09:00:55;;;;;;;64.18;18.23;;;-0.50;99.90;;;;;;5075819;28;20047;-51
2023/01/21 09:03:20;;;;;;;75.55;19.75;;;-0.30;99.90;;;;;;5069129;28;20048;-50
2023/01/21 09:05:46;;;;;;;68.05;17.98;;;0.20;99.90;;;;;;5059157;28;20040;-51
2023/01/21 09:08:12;;;;;;;65.90;18.65;;;-0.30;99.90;;;;;;5060832;28;20040;-51
2023/01/21 09:13:22;;;;;;;;;;;-0.30;99.90;;;;;;5057846;28;20110;-51
2023/01/21 09:15:48;;;;;;;56.60;16.80;;;-0.40;99.90;;;;;;5059574;28;20398;-51
2023/01/21 09:18:14;;;;;;;60.78;17.45;;;-0.40;99.90;;;;;;5061952;28;20484;-51
2023/01/21 09:20:40;;;;;;;58.22;17.63;;;-0.40;99.90;;;;;;5061896;28;20040;-49
2023/01/21 09:23:22;;;;;;;64.30;17.00;;;0.00;99.90;;;;;;5059016;28;20060;-49
2023/01/21 09:26:21;;;;;;;66.45;18.95;;;-0.20;99.90;;;;;;5056761;28;20052;-49
2023/01/21 09:28:55;;;;;;;65.93;17.17;;;-0.10;99.90;;;;;;5055533;28;20048;-50
2023/01/21 09:31:22;;;;;;;76.57;19.88;;;0.20;99.90;;;;;;5059175;28;20040;-51
2023/01/21 09:33:51;;;;;;;73.18;18.63;;;-0.10;99.90;;;;;;5057281;28;20484;-47
2023/01/21 09:36:20;;;;;;;71.05;18.83;;;0.10;99.90;;;;;;5058105;28;20033;-50
2023/01/21 09:38:47;;;;;;;70.95;19.33;;;0.10;99.90;;;;;;5058982;28;20036;-49
2023/01/21 09:41:50;;;;;;;79.30;18.40;;;-0.50;99.90;;;;;;5057364;28;20036;-55
2023/01/21 09:44:29;;;;;;;78.07;18.02;;;0.10;99.90;;;;;;4986960;28;20117;-48
2023/01/21 09:47:03;;;;;;;65.60;17.02;;;0.00;99.90;;;;;;5050743;28;20114;-50
2023/01/21 09:49:35;;;;;;;80.97;18.25;;;0.10;99.90;;;;;;5058229;28;20090;-49
2023/01/21 09:52:05;;;;;;;74.38;17.58;;;0.20;99.90;;;;;;5057399;28;20040;-47
2023/01/21 09:54:32;;;;;;;93.13;20.02;;;-0.20;99.90;;;;;;5056857;28;20058;-49
2023/01/21 09:57:00;;;;;;;73.88;17.67;;;0.20;99.90;;;;;;5061582;28;20041;-47
2023/01/21 09:59:46;;;;;;;96.50;19.13;;;-0.40;99.90;;;;;;5059247;28;20462;-52
2023/01/21 10:02:29;;;;;;;91.53;18.35;;;-0.30;99.90;;;;;;5058592;28;20044;-47
2023/01/21 10:05:20;;;;;;;127.47;20.60;;;-0.40;99.90;;;;;;5059768;28;20040;-53
2023/01/21 10:07:59;;;;;;;151.60;19.65;;;0.20;99.90;;;;;;5059733;28;20098;-52
2023/01/21 10:10:47;;;;;;;87.20;19.25;;;0.30;99.90;;;;;;5059809;28;20047;-47
2023/01/21 10:13:34;;;;;;;195.77;19.13;;;-0.40;99.90;;;;;;5056687;28;20076;-49
2023/01/21 10:16:04;;;;;;;121.40;17.70;;;0.20;99.90;;;;;;5057310;28;20508;-49
2023/01/21 10:18:33;;;;;;;78.20;16.98;;;0.30;99.90;;;;;;5058335;28;20090;-48
2023/01/21 10:21:36;;;;;;;172.95;20.00;;;0.20;99.90;;;;;;5058856;28;20040;-52
2023/01/21 10:24:18;;;;;;;255.93;22.88;;;-0.40;99.90;;;;;;5043917;28;20099;-49
2023/01/21 10:26:47;;;;;;;133.57;19.42;;;-0.10;99.90;;;;;;5057766;28;20093;-50
2023/01/21 10:29:17;;;;;;;101.82;16.63;;;-0.10;99.90;;;;;;5056035;28;20111;-51
2023/01/21 10:31:50;;;;;;;318.67;24.55;;;-0.40;99.90;;;;;;5050134;28;20036;-49
2023/01/21 10:34:18;;;;;;;184.38;21.25;;;-0.30;99.90;;;;;;5035043;28;20064;-47
2023/01/21 10:36:46;;;;;;;315.38;27.60;;;0.30;99.90;;;;;;5058733;28;20045;-51
2023/01/21 10:39:18;;;;;;;273.15;23.13;;;0.30;99.90;;;;;;5060534;28;20029;-49
2023/01/21 10:42:08;;;;;;;167.55;20.75;;;0.30;99.90;;;;;;5060801;28;20079;-53
2023/01/21 10:45:29;;;;;;;144.57;19.83;;;-0.20;99.90;;;;;;5062388;28;20043;-51
2023/01/21 10:48:17;;;;;;;165.68;24.30;;;0.30;99.90;;;;;;4995881;28;20034;-47
2023/01/21 10:50:57;;;;;;;102.75;21.50;;;0.30;99.90;;;;;;5056326;28;20086;-50
2023/01/21 10:53:35;;;;;;;123.00;20.35;;;-0.20;99.90;;;;;;5060319;28;20049;-50
2023/01/21 10:56:25;;;;;;;117.00;19.83;;;-0.10;99.90;;;;;;5060829;28;20044;-47
2023/01/21 10:59:05;;;;;;;106.50;20.55;;;-0.10;99.90;;;;;;5059969;28;20037;-51
2023/01/21 11:01:38;;;;;;;102.05;19.10;;;-0.30;99.90;;;;;;5063252;28;20086;-49
2023/01/21 11:04:16;;;;;;;101.63;17.52;;;0.10;99.90;;;;;;5063530;28;20400;-49
2023/01/21 11:06:44;;;;;;;152.20;19.48;;;-0.30;99.90;;;;;;5061499;28;20067;-50
2023/01/21 11:09:13;;;;;;;173.13;20.48;;;0.20;99.90;;;;;;5060404;28;20479;-48
2023/01/21 11:11:40;;;;;;;151.10;20.83;;;-0.50;99.90;;;;;;5056254;28;20044;-51
2023/01/21 11:14:06;;;;;;;104.05;18.15;;;0.20;99.90;;;;;;5052423;28;20102;-49
2023/01/21 11:16:42;;;;;;;130.50;20.67;;;-0.50;99.90;;;;;;5055919;28;20036;-50
2023/01/21 11:19:11;;;;;;;134.63;21.67;;;0.10;99.90;;;;;;5053948;28;20032;-50
2023/01/21 11:21:38;;;;;;;102.18;18.58;;;-0.30;99.90;;;;;;5053533;28;20043;-49
2023/01/21 11:24:22;;;;;;;110.47;21.55;;;-0.30;99.90;;;;;;5075252;28;20052;-50
2023/01/21 11:27:00;;;;;;;73.63;18.27;;;-0.40;99.90;;;;;;5075443;28;20389;-49
2023/01/21 11:29:36;;;;;;;86.75;19.35;;;-0.10;99.90;;;;;;5074305;28;20411;-49
2023/01/21 11:32:09;;;;;;;126.40;19.95;;;-0.40;99.90;;;;;;5081053;28;20546;-51
2023/01/21 11:34:35;;;;;;;111.90;20.83;;;0.10;99.90;;;;;;5077278;28;20458;-49
2023/01/21 11:37:07;;;;;;;102.97;22.10;;;-0.20;99.90;;;;;;5073617;28;20056;-53
2023/01/21 11:39:37;;;;;;;66.28;18.45;;;-0.50;99.90;;;;;;5076203;28;20103;-50
2023/01/21 11:42:15;;;;;;;102.53;19.40;;;0.30;99.90;;;;;;5076896;28;20028;-49
2023/01/21 11:45:00;;;;;;;110.10;21.38;;;-0.50;99.90;;;;;;5070060;28;20468;-49
2023/01/21 11:47:46;;;;;;;89.97;19.50;;;-0.30;99.90;;;;;;5081296;28;20047;-49
2023/01/21 11:50:34;;;;;;;164.40;20.70;;;-0.30;99.90;;;;;;5070096;28;20040;-52
2023/01/21 11:53:06;;;;;;;107.35;19.45;;;0.20;99.90;;;;;;5067417;28;20060;-52
2023/01/21 11:55:41;;;;;;;145.27;23.52;;;0.10;99.90;;;;;;5069616;28;20048;-51
2023/01/21 11:58:18;;;;;;;96.72;22.05;;;-0.20;99.90;;;;;;5070101;28;21534;-49
2023/01/21 12:00:49;;;;;;;92.18;21.10;;;-0.20;99.90;;;;;;5060240;28;20033;-52
2023/01/21 12:03:19;;;;;;;70.53;21.10;;;0.50;99.90;;;;;;5064641;28;20075;-49
2023/01/21 12:05:48;;;;;;;77.57;20.67;;;0.20;99.90;;;;;;5065626;28;20396;-52
2023/01/21 12:08:27;;;;;;;81.57;22.08;;;-0.10;99.90;;;;;;5069525;28;20037;-52
2023/01/21 12:10:56;;;;;;;93.30;21.35;;;0.70;99.90;;;;;;5062596;28;20090;-52
2023/01/21 12:13:36;;;;;;;76.32;19.95;;;0.70;99.90;;;;;;5061137;28;20094;-52
2023/01/21 12:16:16;;;;;;;67.45;19.00;;;0.60;99.90;;;;;;5066865;28;20037;-51
2023/01/21 12:19:19;;;;;;;66.30;19.42;;;0.00;99.90;;;;;;5064676;28;20048;-53
2023/01/21 12:22:27;;;;;;;81.95;19.13;;;0.60;99.90;;;;;;5063162;28;20044;-51
2023/01/21 12:25:08;;;;;;;79.93;17.85;;;0.80;99.90;;;;;;5060396;28;20044;-52
2023/01/21 12:27:44;;;;;;;52.85;19.20;;;0.60;99.90;;;;;;5067388;28;20036;-51
2023/01/21 12:30:29;;;;;;;85.18;20.05;;;0.10;99.90;;;;;;5063753;28;20473;-52
2023/01/21 12:33:07;;;;;;;57.90;19.42;;;1.00;99.90;;;;;;5065979;28;20075;-51
2023/01/21 12:35:40;;;;;;;66.82;18.63;;;1.00;99.90;;;;;;5060382;28;20053;-47
2023/01/21 12:38:32;;;;;;;56.58;18.73;;;1.00;99.90;;;;;;5065458;28;20031;-51
2023/01/21 12:41:10;;;;;;;63.50;19.52;;;0.20;99.90;;;;;;5080161;28;20043;-49
2023/01/21 12:43:40;;;;;;;72.03;19.08;;;0.10;99.90;;;;;;5075026;28;20055;-52
2023/01/21 12:46:15;;;;;;;55.50;18.55;;;0.10;99.90;;;;;;5074536;28;20078;-49
2023/01/21 12:48:46;;;;;;;49.10;18.92;;;0.20;99.90;;;;;;5069747;28;20048;-53
2023/01/21 12:51:24;;;;;;;58.33;20.48;;;0.20;99.90;;;;;;5070146;28;20036;-50